Time;durP1;ratioP1;P1;durP2;ratioP2;P2;SDS_P1;SDS_P2;PMS_P1;PMS_P2;Temp;Humidity;BMP_temperature;BMP_pressure;BME280_temperature;BME280_humidity;BME280_pressure;Samples;Min_cycle;Max_cycle;Signal;HPM_P1;HPM_P2
2023/09/03 00:01:23;;;;;;;18.48;12.68;;;;;;;14.12;100.00;102440.47;4988394;28;20108;-87
2023/09/03 00:03:49;;;;;;;19.00;13.45;;;;;;;14.06;100.00;102435.38;5003753;28;20044;-86
2023/09/03 00:06:14;;;;;;;27.80;15.85;;;;;;;13.99;100.00;102429.41;5018310;28;20092;-86
2023/09/03 00:08:40;;;;;;;22.52;14.95;;;;;;;13.95;100.00;102436.03;4987582;28;20358;-86
2023/09/03 00:11:05;;;;;;;22.17;14.05;;;;;;;13.95;100.00;102436.91;4988835;28;20041;-86
2023/09/03 00:13:30;;;;;;;20.25;15.30;;;;;;;13.96;100.00;102438.69;5003131;28;20030;-86
2023/09/03 00:15:56;;;;;;;22.15;13.18;;;;;;;13.93;100.00;102438.84;4989232;28;20049;-86
2023/09/03 00:18:21;;;;;;;23.80;16.40;;;;;;;13.92;100.00;102437.09;5003892;28;20080;-86
2023/09/03 00:20:57;;;;;;;24.23;14.20;;;;;;;13.89;100.00;102426.31;5008654;28;20469;-86
2023/09/03 00:23:23;;;;;;;22.42;14.20;;;;;;;13.89;100.00;102431.78;4990815;28;20042;-86
2023/09/03 00:25:48;;;;;;;22.75;15.05;;;;;;;13.87;100.00;102430.16;5007665;28;20030;-86
2023/09/03 00:28:13;;;;;;;20.85;14.05;;;;;;;13.86;100.00;102437.47;5006534;28;20548;-86
2023/09/03 00:30:39;;;;;;;23.15;15.63;;;;;;;13.83;100.00;102432.19;5007403;28;20061;-86
2023/09/03 00:33:04;;;;;;;26.45;15.95;;;;;;;13.83;100.00;102434.03;5006313;28;20465;-86
2023/09/03 00:35:30;;;;;;;24.23;15.70;;;;;;;13.81;100.00;102433.28;5007243;28;20037;-86
2023/09/03 00:37:55;;;;;;;23.35;16.02;;;;;;;13.83;100.00;102444.97;4995592;28;20045;-86
2023/09/03 00:40:20;;;;;;;21.35;16.27;;;;;;;13.82;100.00;102448.69;5007029;28;20037;-86
2023/09/03 00:42:46;;;;;;;20.85;14.63;;;;;;;13.80;100.00;102451.50;5006075;28;20034;-86
2023/09/03 00:45:11;;;;;;;22.27;14.18;;;;;;;13.78;100.00;102454.34;4990479;28;20141;-86
2023/09/03 00:47:37;;;;;;;21.08;14.18;;;;;;;13.78;100.00;102453.47;4999327;28;20038;-86
2023/09/03 00:50:03;;;;;;;22.90;14.38;;;;;;;13.77;100.00;102454.44;4971427;28;20045;-86
2023/09/03 00:52:30;;;;;;;19.08;13.95;;;;;;;13.74;100.00;102458.22;5014383;28;20096;-86
2023/09/03 00:54:55;;;;;;;17.27;13.60;;;;;;;13.71;100.00;102452.09;5023137;28;20484;-86
2023/09/03 00:57:21;;;;;;;23.80;15.10;;;;;;;13.73;100.00;102458.34;5002481;28;20062;-86
2023/09/03 00:59:47;;;;;;;17.13;13.45;;;;;;;13.68;100.00;102460.47;4988686;28;20043;-85
2023/09/03 01:02:17;;;;;;;21.13;15.00;;;;;;;13.64;100.00;102459.75;5011245;28;20485;-86
2023/09/03 01:04:42;;;;;;;20.63;15.43;;;;;;;13.62;100.00;102456.25;4997211;28;20073;-86
2023/09/03 01:07:09;;;;;;;18.80;13.35;;;;;;;13.60;100.00;102473.72;4988346;28;20465;-86
2023/09/03 01:09:34;;;;;;;24.48;14.27;;;;;;;13.57;100.00;102474.78;4988547;28;20496;-86
2023/09/03 01:12:06;;;;;;;20.95;15.23;;;;;;;13.58;100.00;102476.53;5007830;28;20038;-86
2023/09/03 01:14:50;;;;;;;22.20;15.33;;;;;;;13.61;100.00;102473.59;5006281;28;20034;-86
2023/09/03 01:17:35;;;;;;;18.58;14.23;;;;;;;13.59;100.00;102456.44;5010134;28;20034;-86
2023/09/03 01:20:21;;;;;;;19.38;15.15;;;;;;;13.59;100.00;102450.94;5010650;28;20070;-86
2023/09/03 01:22:59;;;;;;;20.23;14.23;;;;;;;13.59;100.00;102453.69;4999011;28;20402;-86
2023/09/03 01:25:47;;;;;;;20.73;14.45;;;;;;;13.57;100.00;102452.91;5006780;28;20044;-86
2023/09/03 01:28:21;;;;;;;23.83;14.27;;;;;;;13.60;100.00;102460.03;4985584;28;20375;-86
2023/09/03 01:30:49;;;;;;;22.20;15.95;;;;;;;13.56;100.00;102461.19;5010263;28;20501;-86
2023/09/03 01:33:16;;;;;;;20.05;13.10;;;;;;;13.48;100.00;102451.59;5010728;28;20489;-86
2023/09/03 01:35:42;;;;;;;17.05;12.50;;;;;;;13.48;100.00;102454.34;4990732;28;20084;-86
2023/09/03 01:38:08;;;;;;;20.42;13.95;;;;;;;13.42;100.00;102448.31;5022292;28;20448;-86
2023/09/03 01:40:33;;;;;;;20.10;13.23;;;;;;;13.45;100.00;102457.25;5010921;28;20436;-86
2023/09/03 01:42:58;;;;;;;17.17;13.07;;;;;;;13.42;100.00;102459.25;4993590;28;20026;-86
2023/09/03 01:45:34;;;;;;;20.60;14.60;;;;;;;13.36;100.00;102457.78;5031187;28;20102;-85
2023/09/03 01:48:09;;;;;;;21.13;14.43;;;;;;;13.34;100.00;102456.13;5012683;28;20071;-86
2023/09/03 01:50:57;;;;;;;19.55;13.75;;;;;;;13.31;100.00;102448.09;5013301;28;20045;-86
2023/09/03 01:53:34;;;;;;;17.42;11.98;;;;;;;13.31;100.00;102459.91;5012835;28;20033;-86
2023/09/03 01:56:02;;;;;;;16.05;12.30;;;;;;;13.27;100.00;102459.19;5012725;28;20072;-86
2023/09/03 01:58:30;;;;;;;17.73;13.10;;;;;;;13.24;100.00;102453.00;4998946;28;20443;-85
2023/09/03 02:00:56;;;;;;;19.88;12.98;;;;;;;13.18;100.00;102459.69;4993446;28;20026;-86
2023/09/03 02:03:26;;;;;;;16.83;12.57;;;;;;;13.18;100.00;102454.22;5029421;28;20033;-86
2023/09/03 02:05:51;;;;;;;14.52;11.77;;;;;;;13.14;100.00;102454.47;5030952;28;20029;-85
2023/09/03 02:08:17;;;;;;;11.68;9.75;;;;;;;13.13;100.00;102463.66;5013759;28;20033;-85
2023/09/03 02:10:42;;;;;;;9.93;8.50;;;;;;;13.11;100.00;102469.22;4993101;28;20088;-86
2023/09/03 02:13:08;;;;;;;11.98;9.52;;;;;;;13.09;100.00;102470.25;4983611;28;20088;-86
2023/09/03 02:15:33;;;;;;;10.18;8.73;;;;;;;13.10;100.00;102492.03;5009296;28;20369;-86
2023/09/03 02:17:58;;;;;;;10.23;7.85;;;;;;;13.07;100.00;102494.06;5009041;28;20041;-85
2023/09/03 02:20:24;;;;;;;13.10;8.48;;;;;;;12.98;100.00;102490.00;5017816;28;20041;-85
2023/09/03 02:22:49;;;;;;;13.40;9.43;;;;;;;12.98;100.00;102496.34;4983721;28;20036;-86
2023/09/03 02:25:15;;;;;;;13.40;9.82;;;;;;;12.97;100.00;102496.44;5025246;28;20038;-85
2023/09/03 02:27:40;;;;;;;11.18;9.07;;;;;;;12.95;100.00;102490.16;4980024;28;20497;-85
2023/09/03 02:30:06;;;;;;;11.20;9.10;;;;;;;12.97;100.00;102496.44;5008722;28;20033;-86
2023/09/03 02:32:31;;;;;;;10.48;8.63;;;;;;;12.99;100.00;102503.56;4992108;28;20045;-85
2023/09/03 02:34:57;;;;;;;16.73;9.85;;;;;;;12.93;100.00;102508.50;5024236;28;20507;-85
2023/09/03 02:37:23;;;;;;;14.48;9.85;;;;;;;12.93;100.00;102512.13;4996073;28;20388;-86
2023/09/03 02:39:48;;;;;;;10.45;9.25;;;;;;;12.94;100.00;102505.69;5011996;28;20029;-86
2023/09/03 02:42:13;;;;;;;13.10;9.57;;;;;;;12.90;100.00;102495.00;5026315;28;20556;-86
2023/09/03 02:44:39;;;;;;;13.18;8.77;;;;;;;12.90;100.00;102495.00;4975859;28;20501;-86
2023/09/03 02:47:04;;;;;;;9.65;8.60;;;;;;;12.85;100.00;102484.34;4990670;28;20568;-86
2023/09/03 02:49:29;;;;;;;10.88;8.35;;;;;;;12.80;100.00;102469.19;5028838;28;20048;-86
2023/09/03 02:51:55;;;;;;;29.45;8.70;;;;;;;12.82;100.00;102476.31;5023586;28;20113;-86
2023/09/03 02:54:20;;;;;;;10.90;8.07;;;;;;;12.79;100.00;102476.50;5009139;28;20104;-85
2023/09/03 02:56:46;;;;;;;9.15;7.88;;;;;;;12.73;100.00;102472.25;4991701;28;20623;-86
2023/09/03 02:59:11;;;;;;;9.25;8.07;;;;;;;12.73;100.00;102477.72;4994861;28;20043;-86
2023/09/03 03:01:38;;;;;;;12.60;9.05;;;;;;;12.71;100.00;102487.84;5011487;28;20029;-86
2023/09/03 03:04:04;;;;;;;13.38;10.02;;;;;;;12.66;100.00;102476.28;4995655;28;20064;-86
2023/09/03 03:06:29;;;;;;;14.20;11.25;;;;;;;12.65;100.00;102488.19;5024074;28;20124;-85
2023/09/03 03:08:55;;;;;;;20.13;11.25;;;;;;;12.64;100.00;102494.63;5024545;28;20025;-86
2023/09/03 03:11:20;;;;;;;13.48;10.15;;;;;;;12.62;100.00;102491.06;5024529;28;20030;-85
2023/09/03 03:13:55;;;;;;;14.48;10.98;;;;;;;12.58;100.00;102486.75;5023879;28;20103;-86
2023/09/03 03:16:24;;;;;;;14.27;9.98;;;;;;;12.64;100.00;102496.47;4992691;28;20034;-85
2023/09/03 03:18:52;;;;;;;14.98;11.05;;;;;;;12.68;100.00;102492.56;5008684;28;20057;-86
2023/09/03 03:21:22;;;;;;;15.25;11.23;;;;;;;12.67;100.00;102482.63;5011561;28;20033;-86
2023/09/03 03:23:52;;;;;;;13.95;10.48;;;;;;;12.63;100.00;102460.06;5024699;28;20068;-86
2023/09/03 03:26:21;;;;;;;16.25;11.32;;;;;;;12.65;100.00;102457.28;5008066;28;20030;-86
2023/09/03 03:28:47;;;;;;;17.00;10.20;;;;;;;12.61;100.00;102453.81;5023904;28;20706;-86
2023/09/03 03:31:16;;;;;;;15.98;12.32;;;;;;;12.63;100.00;102453.72;5009382;28;20096;-85
2023/09/03 03:33:46;;;;;;;18.23;12.05;;;;;;;12.61;100.00;102442.03;5009557;28;20161;-85
2023/09/03 03:36:17;;;;;;;14.70;10.85;;;;;;;12.65;100.00;102449.94;5024681;28;20473;-85
2023/09/03 03:38:43;;;;;;;21.50;11.05;;;;;;;12.64;100.00;102459.13;5028102;28;20045;-86
2023/09/03 03:41:10;;;;;;;16.27;10.93;;;;;;;12.62;100.00;102482.88;5009759;28;20099;-86
2023/09/03 03:43:38;;;;;;;15.43;10.82;;;;;;;12.58;100.00;102481.28;4993672;28;20087;-86
2023/09/03 03:46:05;;;;;;;15.48;11.07;;;;;;;12.57;100.00;102484.97;4994752;28;20040;-85
2023/09/03 03:48:32;;;;;;;17.48;11.80;;;;;;;12.58;100.00;102494.94;5010603;28;20247;-86
2023/09/03 03:50:57;;;;;;;17.05;11.57;;;;;;;12.57;100.00;102506.81;5011088;28;20424;-85
2023/09/03 03:53:24;;;;;;;15.75;11.23;;;;;;;12.53;100.00;102488.84;4994092;28;20068;-85
2023/09/03 03:56:05;;;;;;;15.32;11.15;;;;;;;12.57;100.00;102490.44;5007772;28;20069;-85
2023/09/03 03:58:35;;;;;;;13.95;10.27;;;;;;;12.54;100.00;102495.19;5020263;28;20033;-85
2023/09/03 04:01:15;;;;;;;19.88;11.43;;;;;;;12.52;100.00;102498.88;5011745;28;20029;-85
2023/09/03 04:03:40;;;;;;;15.95;11.10;;;;;;;12.50;100.00;102500.81;5010311;28;20037;-85
2023/09/03 04:06:06;;;;;;;14.80;11.40;;;;;;;12.45;100.00;102505.66;5010565;28;20033;-85
2023/09/03 04:08:33;;;;;;;14.77;10.85;;;;;;;12.43;100.00;102498.50;5003827;28;20401;-85
2023/09/03 04:11:00;;;;;;;14.05;10.68;;;;;;;12.50;100.00;102513.59;5008699;28;20532;-85
2023/09/03 04:13:27;;;;;;;18.98;11.40;;;;;;;12.49;100.00;102511.81;5002495;28;20021;-85
2023/09/03 04:15:56;;;;;;;16.98;10.93;;;;;;;12.47;100.00;102506.44;4993168;28;20381;-86
2023/09/03 04:18:23;;;;;;;14.73;10.10;;;;;;;12.50;100.00;102510.88;5023676;28;20041;-85
2023/09/03 04:20:53;;;;;;;15.43;9.57;;;;;;;12.47;100.00;102517.34;4990863;28;20536;-85
2023/09/03 04:23:19;;;;;;;16.38;10.10;;;;;;;12.48;100.00;102529.16;5025256;28;20489;-85
2023/09/03 04:25:45;;;;;;;14.35;10.07;;;;;;;12.48;100.00;102530.03;5010067;28;20095;-85
2023/09/03 04:28:11;;;;;;;15.23;9.75;;;;;;;12.49;100.00;102526.34;5025329;28;20033;-86
2023/09/03 04:30:37;;;;;;;15.38;9.85;;;;;;;12.48;100.00;102524.56;5010618;28;20396;-85
2023/09/03 04:33:04;;;;;;;15.02;9.88;;;;;;;12.48;100.00;102519.13;5010121;28;20132;-85
2023/09/03 04:35:30;;;;;;;13.57;10.52;;;;;;;12.48;100.00;102510.94;4994030;28;20033;-86
2023/09/03 04:37:56;;;;;;;12.20;9.45;;;;;;;12.49;100.00;102520.00;5009684;28;20036;-86
2023/09/03 04:40:21;;;;;;;11.68;8.57;;;;;;;12.49;100.00;102530.91;4994330;28;20029;-85
2023/09/03 04:42:47;;;;;;;13.40;8.50;;;;;;;12.49;100.00;102531.78;5020648;28;20105;-85
2023/09/03 04:45:13;;;;;;;10.98;8.43;;;;;;;12.47;100.00;102530.13;4974678;28;20565;-86
2023/09/03 04:47:38;;;;;;;9.43;7.68;;;;;;;12.47;100.00;102527.41;5022796;28;20058;-86
2023/09/03 04:50:04;;;;;;;14.40;8.88;;;;;;;12.47;100.00;102531.00;5007799;28;20140;-86
2023/09/03 04:52:30;;;;;;;15.43;9.95;;;;;;;12.44;100.00;102527.56;4984791;28;20124;-86
2023/09/03 04:54:56;;;;;;;14.57;11.13;;;;;;;12.42;100.00;102540.41;5010415;28;20036;-86
2023/09/03 04:57:21;;;;;;;14.60;10.18;;;;;;;12.38;100.00;102538.81;4978760;28;20022;-85
2023/09/03 04:59:47;;;;;;;14.57;10.48;;;;;;;12.37;100.00;102550.69;5010886;28;20088;-85
2023/09/03 05:02:13;;;;;;;16.33;10.27;;;;;;;12.40;100.00;102564.16;5011733;28;20125;-85
2023/09/03 05:04:38;;;;;;;14.40;10.85;;;;;;;12.40;100.00;102564.16;5030082;28;20032;-85
2023/09/03 05:07:05;;;;;;;13.43;10.60;;;;;;;12.39;100.00;102555.09;4996420;28;20102;-85
2023/09/03 05:09:31;;;;;;;20.45;10.52;;;;;;;12.39;100.00;102559.66;5010053;28;20144;-85
2023/09/03 05:11:57;;;;;;;18.30;11.13;;;;;;;12.39;100.00;102554.22;5026329;28;20054;-86
2023/09/03 05:14:22;;;;;;;17.42;11.65;;;;;;;12.38;100.00;102547.00;5030332;28;20037;-85
2023/09/03 05:16:47;;;;;;;16.25;11.30;;;;;;;12.40;100.00;102550.50;5012859;28;20037;-85
2023/09/03 05:19:14;;;;;;;17.15;11.55;;;;;;;12.45;100.00;102562.97;5013690;28;20033;-85
2023/09/03 05:21:41;;;;;;;17.20;12.07;;;;;;;12.37;100.00;102558.88;5010390;28;20051;-85
2023/09/03 05:24:07;;;;;;;15.13;10.73;;;;;;;12.45;100.00;102571.16;5026642;28;20457;-85
2023/09/03 05:26:32;;;;;;;18.23;10.82;;;;;;;12.51;100.00;102583.59;5018842;28;20481;-85
2023/09/03 05:28:58;;;;;;;15.90;11.80;;;;;;;12.52;100.00;102575.31;5015147;28;20041;-85
2023/09/03 05:31:23;;;;;;;15.23;11.07;;;;;;;12.59;100.00;102580.44;5010505;28;20425;-85
2023/09/03 05:33:49;;;;;;;17.70;11.63;;;;;;;12.62;100.00;102577.56;5020683;28;20034;-85
2023/09/03 05:36:14;;;;;;;15.20;11.00;;;;;;;12.62;100.00;102573.00;5019435;28;20117;-85
2023/09/03 05:38:42;;;;;;;15.18;11.30;;;;;;;12.67;100.00;102575.47;5028978;28;20119;-85
2023/09/03 05:41:11;;;;;;;15.15;10.30;;;;;;;12.73;100.00;102586.97;4996680;28;20017;-85
2023/09/03 05:43:38;;;;;;;13.85;9.85;;;;;;;12.75;100.00;102584.13;4992086;28;20093;-85
2023/09/03 05:46:06;;;;;;;15.13;10.93;;;;;;;12.73;100.00;102569.69;5010315;28;20477;-85
2023/09/03 05:48:33;;;;;;;14.52;11.63;;;;;;;12.81;100.00;102580.19;5009497;28;20504;-85
2023/09/03 05:51:03;;;;;;;15.38;10.65;;;;;;;12.90;100.00;102572.38;5009742;28;20030;-85
2023/09/03 05:53:30;;;;;;;17.67;10.73;;;;;;;12.95;100.00;102581.19;5027217;28;20420;-85
2023/09/03 05:56:06;;;;;;;15.38;12.30;;;;;;;12.99;100.00;102581.94;5012595;28;20030;-85
2023/09/03 05:58:33;;;;;;;15.15;10.60;;;;;;;13.00;100.00;102580.94;4989141;28;20029;-85
2023/09/03 06:01:06;;;;;;;21.58;11.38;;;;;;;13.06;100.00;102588.84;5028943;28;20029;-85
2023/09/03 06:03:31;;;;;;;15.65;10.80;;;;;;;13.11;100.00;102592.19;5029024;28;20071;-85
2023/09/03 06:06:05;;;;;;;13.98;10.88;;;;;;;13.22;100.00;102595.22;5017932;28;20112;-85
2023/09/03 06:08:33;;;;;;;17.67;12.05;;;;;;;13.27;100.00;102595.84;5011973;28;20520;-85
2023/09/03 06:11:00;;;;;;;16.35;11.77;;;;;;;13.33;100.00;102604.69;5008992;28;20052;-85
2023/09/03 06:13:30;;;;;;;16.23;11.00;;;;;;;13.37;100.00;102609.88;5008314;28;20046;-85
2023/09/03 06:15:55;;;;;;;16.13;11.38;;;;;;;13.43;100.00;102611.38;5010711;28;20069;-86
2023/09/03 06:18:22;;;;;;;17.23;12.27;;;;;;;13.48;100.00;102620.25;5010714;28;20072;-85
2023/09/03 06:20:48;;;;;;;16.45;12.05;;;;;;;13.52;100.00;102624.53;5018584;28;20113;-85
2023/09/03 06:23:18;;;;;;;17.42;12.52;;;;;;;13.57;100.00;102629.75;5010484;28;20120;-85
2023/09/03 06:25:44;;;;;;;19.15;12.93;;;;;;;13.59;100.00;102627.84;5025270;28;20092;-85
2023/09/03 06:28:10;;;;;;;20.80;13.65;;;;;;;13.61;100.00;102632.22;5019424;28;20044;-85
2023/09/03 06:30:35;;;;;;;18.60;13.02;;;;;;;13.65;100.00;102641.16;5003955;28;20037;-85
2023/09/03 06:33:01;;;;;;;17.33;12.85;;;;;;;13.67;100.00;102641.97;4995050;28;20071;-85
2023/09/03 06:35:26;;;;;;;18.70;11.77;;;;;;;13.73;100.00;102650.69;5026961;28;20033;-85
2023/09/03 06:37:52;;;;;;;16.23;10.98;;;;;;;13.79;100.00;102661.28;5012759;28;20361;-85
2023/09/03 06:40:17;;;;;;;17.00;12.77;;;;;;;13.84;100.00;102660.13;4992140;28;20400;-85
2023/09/03 06:42:42;;;;;;;19.65;14.00;;;;;;;13.86;100.00;102659.09;5026013;28;20034;-84
2023/09/03 06:45:09;;;;;;;19.98;14.32;;;;;;;13.87;100.00;102658.13;5012012;28;20045;-85
2023/09/03 06:47:34;;;;;;;22.63;16.20;;;;;;;13.91;100.00;102658.81;5016074;28;20044;-84
2023/09/03 06:49:59;;;;;;;27.00;16.92;;;;;;;13.91;100.00;102675.25;5015446;28;20127;-85
2023/09/03 06:52:25;;;;;;;27.85;16.73;;;;;;;13.93;100.00;102674.16;5014764;28;20033;-86
2023/09/03 06:54:51;;;;;;;25.23;17.85;;;;;;;13.92;100.00;102668.78;5020505;28;20197;-86
2023/09/03 06:57:16;;;;;;;27.35;19.15;;;;;;;13.93;100.00;102674.16;5007619;28;20029;-84
2023/09/03 06:59:42;;;;;;;26.00;18.70;;;;;;;13.99;100.00;102673.84;5003644;28;20037;-85
2023/09/03 07:02:08;;;;;;;24.98;18.45;;;;;;;14.03;100.00;102680.00;5009829;28;20033;-84
2023/09/03 07:04:34;;;;;;;29.85;19.35;;;;;;;14.08;100.00;102682.47;5029524;28;20509;-85
2023/09/03 07:07:02;;;;;;;29.25;19.92;;;;;;;14.11;100.00;102685.91;5010698;28;20079;-85
2023/09/03 07:09:29;;;;;;;32.17;21.20;;;;;;;14.14;100.00;102682.13;5029360;28;20488;-85
2023/09/03 07:11:54;;;;;;;26.80;19.75;;;;;;;14.17;100.00;102680.06;4994579;28;20037;-86
2023/09/03 07:14:20;;;;;;;33.47;20.83;;;;;;;14.21;100.00;102681.66;4994629;28;20120;-85
2023/09/03 07:16:45;;;;;;;31.67;19.88;;;;;;;14.29;100.00;102678.50;5011440;28;20045;-86
2023/09/03 07:19:10;;;;;;;30.00;19.77;;;;;;;14.38;100.00;102691.63;5011617;28;20033;-85
2023/09/03 07:21:36;;;;;;;30.20;19.90;;;;;;;14.45;100.00;102684.81;5027676;28;20029;-86
2023/09/03 07:24:01;;;;;;;33.38;20.40;;;;;;;14.47;100.00;102679.25;5003272;28;20044;-86
2023/09/03 07:26:27;;;;;;;32.95;21.05;;;;;;;14.60;100.00;102699.50;5010792;28;20498;-86
2023/09/03 07:28:52;;;;;;;27.77;18.13;;;;;;;14.62;100.00;102686.59;4980520;28;20310;-85
2023/09/03 07:31:17;;;;;;;28.50;19.10;;;;;;;14.77;100.00;102690.25;5008161;28;20067;-85
2023/09/03 07:33:44;;;;;;;34.63;20.60;;;;;;;14.85;100.00;102695.28;5026888;28;20152;-86
2023/09/03 07:36:11;;;;;;;31.92;21.10;;;;;;;14.96;100.00;102703.72;4995240;28;20029;-85
2023/09/03 07:38:39;;;;;;;31.15;21.20;;;;;;;15.01;100.00;102701.56;5027817;28;20075;-86
2023/09/03 07:41:04;;;;;;;32.42;22.20;;;;;;;15.16;100.00;102710.72;5010820;28;20492;-86
2023/09/03 07:43:29;;;;;;;34.03;22.40;;;;;;;15.29;100.00;102715.34;4993931;28;20136;-85
2023/09/03 07:45:55;;;;;;;32.33;23.17;;;;;;;15.46;100.00;102713.41;5011160;28;20076;-85
2023/09/03 07:48:21;;;;;;;36.88;22.20;;;;;;;15.49;100.00;102713.22;5027845;28;20037;-86
2023/09/03 07:50:47;;;;;;;35.63;22.15;;;;;;;15.59;100.00;102713.50;5010983;28;20026;-86
2023/09/03 07:53:12;;;;;;;35.67;22.40;;;;;;;15.70;100.00;102719.22;5002310;28;20420;-85
2023/09/03 07:55:38;;;;;;;31.55;21.98;;;;;;;15.88;100.00;102725.38;5007397;28;20037;-86
2023/09/03 07:58:04;;;;;;;34.13;22.02;;;;;;;16.02;100.00;102717.13;5014533;28;20035;-86
2023/09/03 08:00:30;;;;;;;31.88;21.65;;;;;;;16.16;100.00;102724.47;4994676;28;20037;-86
2023/09/03 08:02:55;;;;;;;31.83;21.77;;;;;;;16.19;100.00;102713.28;5010294;28;20048;-86
2023/09/03 08:05:20;;;;;;;34.72;20.92;;;;;;;16.31;100.00;102717.94;5011389;28;20531;-86
2023/09/03 08:07:46;;;;;;;35.63;21.60;;;;;;;16.41;100.00;102710.84;5024674;28;20096;-86
2023/09/03 08:10:11;;;;;;;31.13;21.92;;;;;;;16.56;100.00;102707.06;5027043;28;20069;-86
2023/09/03 08:12:37;;;;;;;33.50;23.73;;;;;;;16.71;100.00;102709.75;5024171;28;20025;-86
2023/09/03 08:15:02;;;;;;;32.50;21.63;;;;;;;16.79;100.00;102711.03;5010682;28;20085;-86
2023/09/03 08:17:30;;;;;;;30.73;22.33;;;;;;;16.90;100.00;102704.78;5004029;28;20049;-86
2023/09/03 08:19:56;;;;;;;32.38;23.08;;;;;;;17.04;100.00;102699.19;4994272;28;20048;-86
2023/09/03 08:22:21;;;;;;;32.40;22.45;;;;;;;17.19;100.00;102707.34;5013032;28;20430;-86
2023/09/03 08:24:47;;;;;;;33.25;21.73;;;;;;;17.33;100.00;102705.38;5010737;28;20374;-85
2023/09/03 08:27:12;;;;;;;34.03;22.75;;;;;;;17.39;100.00;102708.69;5011093;28;20115;-85
2023/09/03 08:29:37;;;;;;;32.50;22.73;;;;;;;17.46;100.00;102701.75;5011430;28;20073;-85
2023/09/03 08:32:04;;;;;;;33.47;22.42;;;;;;;17.58;100.00;102699.00;5010611;28;20564;-86
2023/09/03 08:34:30;;;;;;;33.75;22.23;;;;;;;17.66;100.00;102697.56;5027787;28;20113;-85
2023/09/03 08:36:55;;;;;;;35.15;23.33;;;;;;;17.76;100.00;102696.78;5030554;28;20045;-86
2023/09/03 08:39:20;;;;;;;33.78;23.90;;;;;;;17.95;100.00;102699.09;5015127;28;20416;-85
2023/09/03 08:41:47;;;;;;;36.28;23.42;;;;;;;18.04;100.00;102705.75;5030448;28;20087;-85
2023/09/03 08:44:27;;;;;;;31.38;23.35;;;;;;;18.14;100.00;102705.97;5031103;28;20049;-85
2023/09/03 08:46:59;;;;;;;32.45;23.63;;;;;;;18.31;100.00;102724.88;5013897;28;20056;-85
2023/09/03 08:49:27;;;;;;;30.95;23.88;;;;;;;18.45;99.42;102721.06;4979356;28;20508;-85
2023/09/03 08:51:53;;;;;;;30.13;22.85;;;;;;;18.53;100.00;102725.00;4995228;28;20108;-85
2023/09/03 08:54:19;;;;;;;33.92;24.08;;;;;;;18.56;98.55;102723.91;5012397;28;20433;-85
2023/09/03 08:56:46;;;;;;;29.65;24.45;;;;;;;18.73;100.00;102719.88;5026375;28;20075;-85
2023/09/03 08:59:11;;;;;;;28.58;21.95;;;;;;;19.02;99.58;102726.75;5008355;28;20025;-85
2023/09/03 09:01:38;;;;;;;29.00;23.02;;;;;;;19.37;100.00;102726.72;5012021;28;20467;-85
2023/09/03 09:04:05;;;;;;;30.42;22.95;;;;;;;19.52;95.64;102726.50;5010665;28;20557;-85
2023/09/03 09:06:32;;;;;;;29.30;22.83;;;;;;;19.77;96.51;102720.78;5003050;28;20038;-84
2023/09/03 09:08:58;;;;;;;29.20;23.50;;;;;;;20.10;93.21;102721.78;5029724;28;20040;-84
2023/09/03 09:11:31;;;;;;;33.00;23.63;;;;;;;20.49;93.46;102727.75;5013799;28;20037;-85
2023/09/03 09:13:57;;;;;;;30.58;24.30;;;;;;;20.72;92.10;102725.81;5013493;28;20397;-85
2023/09/03 09:16:23;;;;;;;30.17;23.30;;;;;;;20.96;90.66;102731.09;5014267;28;20124;-85
2023/09/03 09:18:48;;;;;;;33.90;22.98;;;;;;;21.19;87.92;102726.34;5013232;28;20159;-85
2023/09/03 09:21:16;;;;;;;35.13;22.80;;;;;;;21.39;89.78;102722.69;4983254;28;20061;-85
2023/09/03 09:23:42;;;;;;;26.95;21.38;;;;;;;21.39;87.56;102725.47;4992781;28;20100;-84
2023/09/03 09:26:18;;;;;;;26.33;19.80;;;;;;;21.46;86.83;102715.63;4993782;28;20045;-84
2023/09/03 09:29:00;;;;;;;23.63;17.85;;;;;;;21.47;84.00;102720.13;5003879;28;20033;-84
2023/09/03 09:31:31;;;;;;;22.08;18.30;;;;;;;21.37;83.31;102722.84;5011782;28;20041;-85
2023/09/03 09:33:58;;;;;;;23.45;18.65;;;;;;;21.55;83.45;102720.34;4991243;28;20520;-85
2023/09/03 09:36:24;;;;;;;23.38;17.35;;;;;;;21.92;87.23;102708.72;5029315;28;20064;-84
2023/09/03 09:38:49;;;;;;;22.48;15.63;;;;;;;22.09;83.82;102716.34;5010436;28;20057;-85
2023/09/03 09:41:25;;;;;;;17.77;14.90;;;;;;;22.31;81.41;102722.72;5011569;28;20041;-85
2023/09/03 09:43:51;;;;;;;14.55;11.35;;;;;;;22.45;78.17;102715.88;5025083;28;20476;-85
2023/09/03 09:46:31;;;;;;;13.80;11.10;;;;;;;22.58;81.39;102713.72;4996812;28;20582;-85
2023/09/03 09:48:58;;;;;;;16.17;10.77;;;;;;;22.60;75.05;102714.44;5013156;28;20041;-85
2023/09/03 09:51:26;;;;;;;17.02;13.45;;;;;;;22.42;68.08;102698.50;5013320;28;20044;-85
2023/09/03 09:54:09;;;;;;;15.20;11.60;;;;;;;22.52;78.84;102695.75;4996995;28;20036;-85
2023/09/03 09:56:35;;;;;;;14.38;11.40;;;;;;;22.58;74.82;102685.97;5030026;28;20056;-85
2023/09/03 09:59:02;;;;;;;15.05;12.45;;;;;;;22.82;74.80;102700.28;5000034;28;20443;-84
2023/09/03 10:01:42;;;;;;;15.20;12.23;;;;;;;22.98;76.27;102698.84;5012618;28;20519;-85
2023/09/03 10:04:07;;;;;;;19.48;12.30;;;;;;;22.96;69.33;102707.34;5008637;28;20512;-85
2023/09/03 10:06:34;;;;;;;16.38;12.35;;;;;;;23.02;72.74;102708.63;5026245;28;20042;-85
2023/09/03 10:08:59;;;;;;;14.32;11.82;;;;;;;23.23;75.56;102702.94;5028559;28;20037;-85
2023/09/03 10:11:24;;;;;;;17.30;13.63;;;;;;;23.17;69.32;102702.50;4995642;28;20037;-85
2023/09/03 10:13:50;;;;;;;16.75;13.57;;;;;;;23.29;70.09;102699.53;5012504;28;20034;-85
2023/09/03 10:16:19;;;;;;;17.70;11.82;;;;;;;23.19;72.71;102695.91;5030703;28;20345;-84
2023/09/03 10:18:49;;;;;;;15.80;11.38;;;;;;;23.20;73.86;102701.31;4996030;28;20060;-85
2023/09/03 10:21:23;;;;;;;10.68;9.57;;;;;;;23.28;67.14;102704.22;4994374;28;20371;-85
2023/09/03 10:23:50;;;;;;;14.25;10.68;;;;;;;23.23;64.96;102694.59;5011700;28;20045;-84
2023/09/03 10:26:37;;;;;;;12.23;10.65;;;;;;;23.35;70.93;102696.16;5010358;28;20068;-85
2023/09/03 10:29:05;;;;;;;14.43;9.82;;;;;;;23.70;72.58;102701.06;5024807;28;20079;-85
2023/09/03 10:31:33;;;;;;;13.55;12.02;;;;;;;24.03;69.23;102696.81;5029495;28;20045;-85
2023/09/03 10:33:58;;;;;;;16.25;11.70;;;;;;;24.20;63.84;102700.66;5029900;28;20120;-85
2023/09/03 10:36:24;;;;;;;15.73;11.38;;;;;;;24.48;68.20;102698.78;4987466;28;20132;-84
2023/09/03 10:38:49;;;;;;;13.32;10.98;;;;;;;24.65;64.74;102697.91;5028164;28;20025;-85
2023/09/03 10:41:17;;;;;;;11.48;10.15;;;;;;;24.71;64.00;102696.38;5023297;28;20140;-84
2023/09/03 10:43:42;;;;;;;13.35;10.35;;;;;;;24.86;60.18;102694.81;5016364;28;20560;-85
2023/09/03 10:46:08;;;;;;;14.13;9.55;;;;;;;24.96;62.87;102700.28;5009995;28;20116;-85
2023/09/03 10:48:34;;;;;;;16.00;10.48;;;;;;;25.17;63.74;102702.75;5009884;28;20037;-85
2023/09/03 10:51:00;;;;;;;13.38;10.82;;;;;;;25.22;60.95;102705.91;5010241;28;20505;-85
2023/09/03 10:53:42;;;;;;;11.45;10.23;;;;;;;25.08;59.74;102704.59;5010320;28;20042;-85
2023/09/03 10:56:14;;;;;;;11.82;8.95;;;;;;;25.03;62.62;102708.88;5008526;28;20152;-85
2023/09/03 10:59:01;;;;;;;14.05;9.43;;;;;;;25.16;63.39;102698.22;5023220;28;20033;-85
2023/09/03 11:01:30;;;;;;;12.02;9.63;;;;;;;25.17;60.73;102697.16;5028258;28;20034;-85
2023/09/03 11:03:57;;;;;;;10.82;8.52;;;;;;;25.33;58.50;102691.75;5017392;28;20030;-85
2023/09/03 11:06:27;;;;;;;13.32;9.02;;;;;;;25.20;58.13;102708.00;5011656;28;20052;-85